LYBE/BEG METAR and TAF weather

Enter ICAO airport designator
Station Type Date Time Source
LYBE METAR 2022/12/05 14:00 UTC NOAA

LYBE 051400Z 12012KT CAVOK 11/05 Q1021 NOSIG


Station Type Date Time Source
LYBE Decoded METAR 2022/12/05 14:00 UTC NOAA

Beograd / Surcin, Serbia and Montenegro (LYBE) 44-49N 020-17E 99M
Dec 05, 2022 - 09:00 AM EST / 2022.12.05 1400 UTC
Wind: from the ESE (120 degrees) at 14 MPH (12 KT):0
Visibility: greater than 7 mile(s):0
Temperature: 51 F (11 C)
Dew Point: 41 F (5 C)
Relative Humidity: 66%
Pressure (altimeter): 30.15 in. Hg (1021 hPa)
ob: LYBE 051400Z 12012KT CAVOK 11/05 Q1021 NOSIG
cycle: 14

Station Type Date Time Source
LYBE TAF 2022/12/05 12:21 UTC NOAA

TAF LYBE 051100Z 0512/0612 13012KT CAVOK TX12/0513Z TN05/0606Z

Example: see airport list